Herzlich willkommen!

Am freundlichen Bodensee-Flugplatz zwischen Schwarzwald, Rhein und Alpen.

Aktuelles

Es liegen keine aktuellen Meldungen vor. Wir freuen uns auf Ihren Besuch!

Live am Platz

Die Bilder unserer Webcams werden alle 5 Minuten aktualisiert.

Sonnenaufgang:

05:02 UTC / 07:02 Lokal

Sonnenuntergang:

17:33 UTC / 19:33 Lokal

METAR (17.09.2019 09:50 UTC):

EDNY 170750Z VRB01KT CAVOK 18/13 Q1019
VFR

TAF (17.09.2019 07:00 UTC):

TAF EDNY 170500Z 1706/1806 VRB02KT CAVOK BECMG 1709/1712 27005KT BECMG 1715/1717 04005KT BECMG 1804/1806 03010KT

Alle Angaben unverbindlich und ohne Gewähr. Zeiten genähert.

Für den Verkehrslandeplatz Konstanz werden keine offiziellen Wetterinformationen ausgegeben. Daher werden zur Orientierung Daten des nahegelegenen Flughafens Friedrichshafen dargestellt.

Flugwetterdaten zur Verfügung gestellt von wippich.aero.